Cookstown, NJ

12:51 AM EDT on July 31, 2015 (GMT -0400)
In the Village of | | Change Station
CLOSE
Current Station
Personal Weather Station
Location: New Egypt, NJ
Elevation: 85 ft
Nearby Weather Stations

Elev 85 ft 40.07 °N, 74.53 °W | Updated 22 seconds ago

Overcast
Overcast
74.1 °F
Feels Like 70 °F
N
0.0
Wind Variable Wind from West
Gusts 0.0 mph

Today
High -- | Low -- °F
--% Chance of Precip.
Yesterday
High -- | Low -- °F
Precip. -- in
5:55 AM 8:13 PM
Full, 100% visible
Pressure 29.84 in
Visibility 6.0 miles
Clouds Overcast 300 ft
Heat Index 70 °F
Dew Point 74 °F
Humidity 99%
Rainfall 0.00 in
Snow Depth Not available.
UV 0.0 out of 12
Pollen 6.10 out of 12
Air Quality Not available.
Flu Activity Not available.
SPECI KWRI 310433Z AUTO 26005KT 6SM R24/5000FT BR OVC003 24/24 A2984 RMK AO2

More Conditions Fewer Conditions

Pressure 29.84 in
Visibility 6.0 miles
Clouds Overcast 300 ft
Heat Index 70 °F
Dew Point 74 °F
Humidity 99%
Rainfall 0.00 in
Snow Depth Not available.
UV 0.0 out of 12
Pollen 6.10 out of 12
Air Quality Not available.
Flu Activity Not available.
SPECI KWRI 310433Z AUTO 26005KT 6SM R24/5000FT BR OVC003 24/24 A2984 RMK AO2

More Conditions Fewer Conditions

10-Day Weather Forecast

×

Almanac

Astronomy

Jul. 31, 2015 Rise Set
Actual Time
Civil Twilight
Nautical Twilight
Astronomical Twilight
Moon
Length of Visible Light
Length of Day
Tomorrow will be .
, % of the Moon is Illuminated

Today's Extremes

State Highs State Lows

Community

WunderPhotos

Upload Photos

1,842,613 photos uploaded!

WunderBlogs® & News

Nearby

Air Quality

  Air Quality AQ Index Pollutant
Not available.

Snow Depth

Station Depth Elevation

Earthquake Activity

City Distance Mag. Time & Date
Minimum magnitude displayed is 2.5.

Coastal Water Temperatures

Place Temperature

Stations

Nearby Weather Stations

Station Location Temp. Windchill Dew Point Humidity Wind Precip. Elev Updated Type